Bernard Harbour, Canada
Current Conditions -  °F | °C
As of 10:00 PM on Sunday 21 Dec 2014 (Local Time) from CYCO Reporting Station
Ice Pellets Ice Pellets  
Wind Chill: -19°   Ceiling: 3900
Heat Index: -8°   Visibility: 10mi
Dew Point: -13°   Wind: 5mph
Humidity: 77%   Direction: 40°NE
Pressure: 30.03"   Gusts: NA
Location:  68.78°N, 114.78°W
Report Text: CYCO 220400Z 04004KT 10SM IC OVC039 M22/M25 A3003 RMK SC8 SLP172
Loading
Personal Weather Stations






























Interactive Weather Map New forecast layout! Learn more

10-Day Weather Forecast

Advertisements
Track Severe Weather on mobile